sensor_id;sensor_type;location;lat;lon;timestamp;temperature;humidity
32536;DHT22;18974;50.838;4.636;2023-04-25T00:01:17;10.10;99.90
32536;DHT22;18974;50.838;4.636;2023-04-25T00:03:44;10.10;99.90
32536;DHT22;18974;50.838;4.636;2023-04-25T00:06:11;10.20;99.90
32536;DHT22;18974;50.838;4.636;2023-04-25T00:08:37;10.20;99.90
32536;DHT22;18974;50.838;4.636;2023-04-25T00:11:03;10.20;99.90
32536;DHT22;18974;50.838;4.636;2023-04-25T00:13:29;10.20;99.90
32536;DHT22;18974;50.838;4.636;2023-04-25T00:15:55;10.20;99.90
32536;DHT22;18974;50.838;4.636;2023-04-25T00:18:21;10.10;99.90
32536;DHT22;18974;50.838;4.636;2023-04-25T00:20:47;10.10;99.90
32536;DHT22;18974;50.838;4.636;2023-04-25T00:23:14;10.10;99.90
32536;DHT22;18974;50.838;4.636;2023-04-25T00:25:48;10.20;99.90
32536;DHT22;18974;50.838;4.636;2023-04-25T00:28:14;10.20;99.90
32536;DHT22;18974;50.838;4.636;2023-04-25T00:30:41;10.20;99.90
32536;DHT22;18974;50.838;4.636;2023-04-25T00:33:07;10.30;99.90
32536;DHT22;18974;50.838;4.636;2023-04-25T00:35:34;10.30;99.90
32536;DHT22;18974;50.838;4.636;2023-04-25T00:38:00;10.40;99.90
32536;DHT22;18974;50.838;4.636;2023-04-25T00:40:26;10.30;99.90
32536;DHT22;18974;50.838;4.636;2023-04-25T00:42:52;10.20;99.90
32536;DHT22;18974;50.838;4.636;2023-04-25T00:45:19;10.20;99.90
32536;DHT22;18974;50.838;4.636;2023-04-25T00:47:45;10.20;99.90
32536;DHT22;18974;50.838;4.636;2023-04-25T00:50:12;10.20;99.90
32536;DHT22;18974;50.838;4.636;2023-04-25T00:52:38;10.30;99.90
32536;DHT22;18974;50.838;4.636;2023-04-25T00:55:06;10.20;99.90
32536;DHT22;18974;50.838;4.636;2023-04-25T00:57:32;10.20;99.90
32536;DHT22;18974;50.838;4.636;2023-04-25T00:59:59;10.10;99.90
32536;DHT22;18974;50.838;4.636;2023-04-25T01:02:25;10.10;99.90
32536;DHT22;18974;50.838;4.636;2023-04-25T01:04:52;10.10;99.90
32536;DHT22;18974;50.838;4.636;2023-04-25T01:07:18;10.00;99.90
32536;DHT22;18974;50.838;4.636;2023-04-25T01:09:45;10.00;99.90
32536;DHT22;18974;50.838;4.636;2023-04-25T01:12:11;9.80;99.90
32536;DHT22;18974;50.838;4.636;2023-04-25T01:14:38;9.80;99.90
32536;DHT22;18974;50.838;4.636;2023-04-25T01:17:04;9.80;99.90
32536;DHT22;18974;50.838;4.636;2023-04-25T01:19:29;9.60;99.90
32536;DHT22;18974;50.838;4.636;2023-04-25T01:21:56;9.80;99.90
32536;DHT22;18974;50.838;4.636;2023-04-25T01:24:22;9.70;99.90
32536;DHT22;18974;50.838;4.636;2023-04-25T01:26:48;9.80;99.90
32536;DHT22;18974;50.838;4.636;2023-04-25T01:29:19;9.70;99.90
32536;DHT22;18974;50.838;4.636;2023-04-25T01:31:45;9.60;99.90
32536;DHT22;18974;50.838;4.636;2023-04-25T01:34:12;9.60;99.90
32536;DHT22;18974;50.838;4.636;2023-04-25T01:36:39;9.60;99.90
32536;DHT22;18974;50.838;4.636;2023-04-25T01:39:05;9.60;99.90
32536;DHT22;18974;50.838;4.636;2023-04-25T01:41:32;9.60;99.90
32536;DHT22;18974;50.838;4.636;2023-04-25T01:44:00;9.60;99.90
32536;DHT22;18974;50.838;4.636;2023-04-25T01:46:26;9.50;99.90
32536;DHT22;18974;50.838;4.636;2023-04-25T01:48:52;9.50;99.90
32536;DHT22;18974;50.838;4.636;2023-04-25T01:51:18;9.60;99.90
32536;DHT22;18974;50.838;4.636;2023-04-25T01:53:44;9.60;99.90
32536;DHT22;18974;50.838;4.636;2023-04-25T01:56:10;9.50;99.90
32536;DHT22;18974;50.838;4.636;2023-04-25T01:58:36;9.40;99.90
32536;DHT22;18974;50.838;4.636;2023-04-25T02:01:02;9.40;99.90
32536;DHT22;18974;50.838;4.636;2023-04-25T02:03:31;9.40;99.90
32536;DHT22;18974;50.838;4.636;2023-04-25T02:05:56;9.50;99.90
32536;DHT22;18974;50.838;4.636;2023-04-25T02:08:22;9.50;99.90
32536;DHT22;18974;50.838;4.636;2023-04-25T02:10:48;9.50;99.90
32536;DHT22;18974;50.838;4.636;2023-04-25T02:13:14;9.50;99.90
32536;DHT22;18974;50.838;4.636;2023-04-25T02:15:40;9.50;99.90
32536;DHT22;18974;50.838;4.636;2023-04-25T02:18:06;9.40;99.90
32536;DHT22;18974;50.838;4.636;2023-04-25T02:20:32;9.40;99.90
32536;DHT22;18974;50.838;4.636;2023-04-25T02:22:58;9.40;99.90
32536;DHT22;18974;50.838;4.636;2023-04-25T02:25:24;9.30;99.90
32536;DHT22;18974;50.838;4.636;2023-04-25T02:27:50;9.30;99.90
32536;DHT22;18974;50.838;4.636;2023-04-25T02:30:17;9.30;99.90
32536;DHT22;18974;50.838;4.636;2023-04-25T02:32:43;9.30;99.90
32536;DHT22;18974;50.838;4.636;2023-04-25T02:35:09;9.30;99.90
32536;DHT22;18974;50.838;4.636;2023-04-25T02:37:36;9.30;99.90
32536;DHT22;18974;50.838;4.636;2023-04-25T02:40:02;9.30;99.90
32536;DHT22;18974;50.838;4.636;2023-04-25T02:42:31;9.30;99.90
32536;DHT22;18974;50.838;4.636;2023-04-25T02:44:57;9.20;99.90
32536;DHT22;18974;50.838;4.636;2023-04-25T02:47:22;9.20;99.90
32536;DHT22;18974;50.838;4.636;2023-04-25T02:49:48;9.20;99.90
32536;DHT22;18974;50.838;4.636;2023-04-25T02:52:14;9.20;99.90
32536;DHT22;18974;50.838;4.636;2023-04-25T02:54:40;9.20;99.90
32536;DHT22;18974;50.838;4.636;2023-04-25T02:57:06;9.10;99.90
32536;DHT22;18974;50.838;4.636;2023-04-25T02:59:33;9.10;99.90
32536;DHT22;18974;50.838;4.636;2023-04-25T03:01:59;9.10;99.90
32536;DHT22;18974;50.838;4.636;2023-04-25T03:04:25;9.10;99.90
32536;DHT22;18974;50.838;4.636;2023-04-25T03:06:51;9.10;99.90
32536;DHT22;18974;50.838;4.636;2023-04-25T03:09:17;9.10;99.90
32536;DHT22;18974;50.838;4.636;2023-04-25T03:11:44;9.00;99.90
32536;DHT22;18974;50.838;4.636;2023-04-25T03:14:10;9.00;99.90
32536;DHT22;18974;50.838;4.636;2023-04-25T03:16:36;9.10;99.90
32536;DHT22;18974;50.838;4.636;2023-04-25T03:19:02;9.10;99.90
32536;DHT22;18974;50.838;4.636;2023-04-25T03:21:28;9.10;99.90
32536;DHT22;18974;50.838;4.636;2023-04-25T03:23:54;9.10;99.90
32536;DHT22;18974;50.838;4.636;2023-04-25T03:26:20;9.10;99.90
32536;DHT22;18974;50.838;4.636;2023-04-25T03:28:45;9.10;99.90
32536;DHT22;18974;50.838;4.636;2023-04-25T03:31:11;9.10;99.90
32536;DHT22;18974;50.838;4.636;2023-04-25T03:33:37;9.10;99.90
32536;DHT22;18974;50.838;4.636;2023-04-25T03:36:03;9.20;99.90
32536;DHT22;18974;50.838;4.636;2023-04-25T03:38:28;9.20;99.90
32536;DHT22;18974;50.838;4.636;2023-04-25T03:40:54;9.10;99.90
32536;DHT22;18974;50.838;4.636;2023-04-25T03:43:21;9.00;99.90
32536;DHT22;18974;50.838;4.636;2023-04-25T03:45:47;9.00;99.90
32536;DHT22;18974;50.838;4.636;2023-04-25T03:48:13;8.90;99.90
32536;DHT22;18974;50.838;4.636;2023-04-25T03:50:38;8.90;99.90
32536;DHT22;18974;50.838;4.636;2023-04-25T03:53:04;8.80;99.90
32536;DHT22;18974;50.838;4.636;2023-04-25T03:55:30;8.80;99.90
32536;DHT22;18974;50.838;4.636;2023-04-25T03:57:57;8.80;99.90
32536;DHT22;18974;50.838;4.636;2023-04-25T04:00:23;8.70;99.90
32536;DHT22;18974;50.838;4.636;2023-04-25T04:02:49;8.50;99.90
32536;DHT22;18974;50.838;4.636;2023-04-25T04:05:15;8.30;99.90
32536;DHT22;18974;50.838;4.636;2023-04-25T04:07:40;8.30;99.90
32536;DHT22;18974;50.838;4.636;2023-04-25T04:10:11;8.20;99.90
32536;DHT22;18974;50.838;4.636;2023-04-25T04:12:37;8.20;99.90
32536;DHT22;18974;50.838;4.636;2023-04-25T04:15:05;8.20;99.90
32536;DHT22;18974;50.838;4.636;2023-04-25T04:17:31;8.30;99.90
32536;DHT22;18974;50.838;4.636;2023-04-25T04:19:57;8.20;99.90
32536;DHT22;18974;50.838;4.636;2023-04-25T04:22:23;8.20;99.90
32536;DHT22;18974;50.838;4.636;2023-04-25T04:24:49;8.30;99.90
32536;DHT22;18974;50.838;4.636;2023-04-25T04:27:17;8.30;99.90
32536;DHT22;18974;50.838;4.636;2023-04-25T04:29:43;8.40;99.90
32536;DHT22;18974;50.838;4.636;2023-04-25T04:32:09;8.40;99.90
32536;DHT22;18974;50.838;4.636;2023-04-25T04:34:35;8.30;99.90
32536;DHT22;18974;50.838;4.636;2023-04-25T04:37:01;8.40;99.90
32536;DHT22;18974;50.838;4.636;2023-04-25T04:39:26;8.40;99.90
32536;DHT22;18974;50.838;4.636;2023-04-25T04:41:52;8.50;99.90
32536;DHT22;18974;50.838;4.636;2023-04-25T04:44:19;8.50;99.90
32536;DHT22;18974;50.838;4.636;2023-04-25T04:46:45;8.50;99.90
32536;DHT22;18974;50.838;4.636;2023-04-25T04:49:12;8.50;99.90
32536;DHT22;18974;50.838;4.636;2023-04-25T04:51:39;8.50;99.90
32536;DHT22;18974;50.838;4.636;2023-04-25T04:54:09;8.50;99.90
32536;DHT22;18974;50.838;4.636;2023-04-25T04:56:35;8.50;99.90
32536;DHT22;18974;50.838;4.636;2023-04-25T04:59:01;8.50;99.90
32536;DHT22;18974;50.838;4.636;2023-04-25T05:01:28;8.60;99.90
32536;DHT22;18974;50.838;4.636;2023-04-25T05:03:55;8.60;99.90
32536;DHT22;18974;50.838;4.636;2023-04-25T05:06:26;8.60;99.90
32536;DHT22;18974;50.838;4.636;2023-04-25T05:08:51;8.60;99.90
32536;DHT22;18974;50.838;4.636;2023-04-25T05:11:18;8.50;99.90
32536;DHT22;18974;50.838;4.636;2023-04-25T05:13:44;8.50;99.90
32536;DHT22;18974;50.838;4.636;2023-04-25T05:16:11;8.60;99.90
32536;DHT22;18974;50.838;4.636;2023-04-25T05:18:37;8.50;99.90
32536;DHT22;18974;50.838;4.636;2023-04-25T05:21:03;8.50;99.90
32536;DHT22;18974;50.838;4.636;2023-04-25T05:23:28;8.50;99.90
32536;DHT22;18974;50.838;4.636;2023-04-25T05:25:56;8.50;99.90
32536;DHT22;18974;50.838;4.636;2023-04-25T05:28:21;8.50;99.90
32536;DHT22;18974;50.838;4.636;2023-04-25T05:30:47;8.50;99.90
32536;DHT22;18974;50.838;4.636;2023-04-25T05:33:13;8.50;99.90
32536;DHT22;18974;50.838;4.636;2023-04-25T05:35:39;8.50;99.90
32536;DHT22;18974;50.838;4.636;2023-04-25T05:38:05;8.50;99.90
32536;DHT22;18974;50.838;4.636;2023-04-25T05:40:31;8.40;99.90
32536;DHT22;18974;50.838;4.636;2023-04-25T05:42:56;8.40;99.90
32536;DHT22;18974;50.838;4.636;2023-04-25T05:45:22;8.40;99.90
32536;DHT22;18974;50.838;4.636;2023-04-25T05:47:48;8.50;99.90
32536;DHT22;18974;50.838;4.636;2023-04-25T05:50:14;8.50;99.90
32536;DHT22;18974;50.838;4.636;2023-04-25T05:52:39;8.60;99.90
32536;DHT22;18974;50.838;4.636;2023-04-25T05:55:05;8.60;99.90
32536;DHT22;18974;50.838;4.636;2023-04-25T05:57:31;8.50;99.90
32536;DHT22;18974;50.838;4.636;2023-04-25T05:59:57;8.60;99.90
32536;DHT22;18974;50.838;4.636;2023-04-25T06:02:23;8.60;99.90
32536;DHT22;18974;50.838;4.636;2023-04-25T06:04:50;8.60;99.90
32536;DHT22;18974;50.838;4.636;2023-04-25T06:07:17;8.70;99.90
32536;DHT22;18974;50.838;4.636;2023-04-25T06:09:43;8.80;99.90
32536;DHT22;18974;50.838;4.636;2023-04-25T06:12:09;8.70;99.90
32536;DHT22;18974;50.838;4.636;2023-04-25T06:14:35;8.80;99.90
32536;DHT22;18974;50.838;4.636;2023-04-25T06:17:01;8.80;99.90
32536;DHT22;18974;50.838;4.636;2023-04-25T06:19:32;8.80;99.90
32536;DHT22;18974;50.838;4.636;2023-04-25T06:21:58;8.80;99.90
32536;DHT22;18974;50.838;4.636;2023-04-25T06:24:24;9.00;99.90
32536;DHT22;18974;50.838;4.636;2023-04-25T06:26:50;9.00;99.90
32536;DHT22;18974;50.838;4.636;2023-04-25T06:29:15;9.00;99.90
32536;DHT22;18974;50.838;4.636;2023-04-25T06:31:41;9.10;99.90
32536;DHT22;18974;50.838;4.636;2023-04-25T06:34:07;9.10;99.90
32536;DHT22;18974;50.838;4.636;2023-04-25T06:36:32;9.20;99.90
32536;DHT22;18974;50.838;4.636;2023-04-25T06:38:58;9.20;99.90
32536;DHT22;18974;50.838;4.636;2023-04-25T06:41:23;9.30;99.90
32536;DHT22;18974;50.838;4.636;2023-04-25T06:43:50;9.40;99.90
32536;DHT22;18974;50.838;4.636;2023-04-25T06:46:15;9.50;99.90
32536;DHT22;18974;50.838;4.636;2023-04-25T06:48:41;9.70;99.90
32536;DHT22;18974;50.838;4.636;2023-04-25T06:51:07;9.70;99.90
32536;DHT22;18974;50.838;4.636;2023-04-25T06:53:32;9.90;99.90
32536;DHT22;18974;50.838;4.636;2023-04-25T06:55:58;9.90;99.90
32536;DHT22;18974;50.838;4.636;2023-04-25T06:58:24;10.10;99.90
32536;DHT22;18974;50.838;4.636;2023-04-25T07:00:49;10.20;99.90
32536;DHT22;18974;50.838;4.636;2023-04-25T07:03:15;10.30;99.90
32536;DHT22;18974;50.838;4.636;2023-04-25T07:05:41;10.40;99.90
32536;DHT22;18974;50.838;4.636;2023-04-25T07:08:06;10.30;99.90
32536;DHT22;18974;50.838;4.636;2023-04-25T07:10:32;10.30;99.90
32536;DHT22;18974;50.838;4.636;2023-04-25T07:12:58;10.40;99.90
32536;DHT22;18974;50.838;4.636;2023-04-25T07:15:23;10.50;99.90
32536;DHT22;18974;50.838;4.636;2023-04-25T07:17:49;10.50;99.90
32536;DHT22;18974;50.838;4.636;2023-04-25T07:20:15;10.60;99.90
32536;DHT22;18974;50.838;4.636;2023-04-25T07:22:41;10.60;99.90
32536;DHT22;18974;50.838;4.636;2023-04-25T07:25:07;10.60;99.90
32536;DHT22;18974;50.838;4.636;2023-04-25T07:27:34;10.70;99.90
32536;DHT22;18974;50.838;4.636;2023-04-25T07:29:59;10.80;99.90
32536;DHT22;18974;50.838;4.636;2023-04-25T07:32:26;10.90;99.90
32536;DHT22;18974;50.838;4.636;2023-04-25T07:34:52;10.90;99.90
32536;DHT22;18974;50.838;4.636;2023-04-25T07:37:17;11.00;99.90
32536;DHT22;18974;50.838;4.636;2023-04-25T07:39:44;10.90;99.90
32536;DHT22;18974;50.838;4.636;2023-04-25T07:42:11;11.10;99.90
32536;DHT22;18974;50.838;4.636;2023-04-25T07:44:37;11.20;99.90
32536;DHT22;18974;50.838;4.636;2023-04-25T07:47:09;11.30;99.90
32536;DHT22;18974;50.838;4.636;2023-04-25T07:49:38;11.40;99.90
32536;DHT22;18974;50.838;4.636;2023-04-25T07:52:04;11.60;99.90
32536;DHT22;18974;50.838;4.636;2023-04-25T07:54:31;11.70;99.90
32536;DHT22;18974;50.838;4.636;2023-04-25T07:56:58;11.90;99.90
32536;DHT22;18974;50.838;4.636;2023-04-25T07:59:24;12.10;99.90
32536;DHT22;18974;50.838;4.636;2023-04-25T08:01:50;12.20;99.90
32536;DHT22;18974;50.838;4.636;2023-04-25T08:04:16;12.40;99.90
32536;DHT22;18974;50.838;4.636;2023-04-25T08:06:42;12.60;99.90
32536;DHT22;18974;50.838;4.636;2023-04-25T08:09:08;12.80;99.90
32536;DHT22;18974;50.838;4.636;2023-04-25T08:11:35;13.10;99.90
32536;DHT22;18974;50.838;4.636;2023-04-25T08:14:01;13.00;99.90
32536;DHT22;18974;50.838;4.636;2023-04-25T08:16:27;13.10;99.90
32536;DHT22;18974;50.838;4.636;2023-04-25T08:18:53;13.10;99.90
32536;DHT22;18974;50.838;4.636;2023-04-25T08:21:19;13.10;99.90
32536;DHT22;18974;50.838;4.636;2023-04-25T08:23:44;13.10;99.90
32536;DHT22;18974;50.838;4.636;2023-04-25T08:26:10;13.00;99.90
32536;DHT22;18974;50.838;4.636;2023-04-25T08:28:36;12.80;99.90
32536;DHT22;18974;50.838;4.636;2023-04-25T08:31:02;12.70;99.90
32536;DHT22;18974;50.838;4.636;2023-04-25T08:33:27;12.50;99.90
32536;DHT22;18974;50.838;4.636;2023-04-25T08:35:54;12.30;99.90
32536;DHT22;18974;50.838;4.636;2023-04-25T08:38:20;12.20;99.90
32536;DHT22;18974;50.838;4.636;2023-04-25T08:40:49;12.00;99.90
32536;DHT22;18974;50.838;4.636;2023-04-25T08:43:18;11.90;99.90
32536;DHT22;18974;50.838;4.636;2023-04-25T08:45:44;11.70;99.90
32536;DHT22;18974;50.838;4.636;2023-04-25T08:48:12;11.70;99.90
32536;DHT22;18974;50.838;4.636;2023-04-25T08:50:40;11.60;99.90
32536;DHT22;18974;50.838;4.636;2023-04-25T08:53:12;11.50;99.90
32536;DHT22;18974;50.838;4.636;2023-04-25T08:55:44;11.30;99.90
32536;DHT22;18974;50.838;4.636;2023-04-25T08:58:11;11.00;99.90
32536;DHT22;18974;50.838;4.636;2023-04-25T09:00:38;11.10;99.90
32536;DHT22;18974;50.838;4.636;2023-04-25T09:03:04;11.20;99.90
32536;DHT22;18974;50.838;4.636;2023-04-25T09:05:31;11.40;99.90
32536;DHT22;18974;50.838;4.636;2023-04-25T09:07:57;11.50;99.90
32536;DHT22;18974;50.838;4.636;2023-04-25T09:10:23;11.50;99.90
32536;DHT22;18974;50.838;4.636;2023-04-25T09:13:27;11.60;99.90
32536;DHT22;18974;50.838;4.636;2023-04-25T09:15:57;11.60;99.90
32536;DHT22;18974;50.838;4.636;2023-04-25T09:20:50;11.70;99.90
32536;DHT22;18974;50.838;4.636;2023-04-25T09:23:16;11.80;99.90
32536;DHT22;18974;50.838;4.636;2023-04-25T09:25:47;12.20;99.90
32536;DHT22;18974;50.838;4.636;2023-04-25T09:28:13;12.70;99.90
32536;DHT22;18974;50.838;4.636;2023-04-25T09:30:39;13.10;99.90
32536;DHT22;18974;50.838;4.636;2023-04-25T09:35:38;13.40;99.90
32536;DHT22;18974;50.838;4.636;2023-04-25T09:38:12;13.10;99.90
32536;DHT22;18974;50.838;4.636;2023-04-25T09:40:43;13.00;99.90
32536;DHT22;18974;50.838;4.636;2023-04-25T09:43:21;12.80;99.90
32536;DHT22;18974;50.838;4.636;2023-04-25T09:45:48;12.50;99.90
32536;DHT22;18974;50.838;4.636;2023-04-25T09:48:21;12.30;99.90
32536;DHT22;18974;50.838;4.636;2023-04-25T09:51:10;11.90;99.90
32536;DHT22;18974;50.838;4.636;2023-04-25T09:53:38;11.60;99.90
32536;DHT22;18974;50.838;4.636;2023-04-25T09:56:07;11.30;99.90
32536;DHT22;18974;50.838;4.636;2023-04-25T09:58:34;11.20;99.90
32536;DHT22;18974;50.838;4.636;2023-04-25T10:01:03;11.10;99.90
32536;DHT22;18974;50.838;4.636;2023-04-25T10:03:33;11.10;99.90
32536;DHT22;18974;50.838;4.636;2023-04-25T10:06:01;11.10;99.90
32536;DHT22;18974;50.838;4.636;2023-04-25T10:08:31;11.00;99.90
32536;DHT22;18974;50.838;4.636;2023-04-25T10:11:05;11.00;99.90
32536;DHT22;18974;50.838;4.636;2023-04-25T10:13:33;10.90;99.90
32536;DHT22;18974;50.838;4.636;2023-04-25T10:16:00;11.10;99.90
32536;DHT22;18974;50.838;4.636;2023-04-25T10:18:27;11.40;99.90
32536;DHT22;18974;50.838;4.636;2023-04-25T10:21:00;11.60;99.90
32536;DHT22;18974;50.838;4.636;2023-04-25T10:23:26;11.90;99.90
32536;DHT22;18974;50.838;4.636;2023-04-25T10:25:53;12.20;99.90
32536;DHT22;18974;50.838;4.636;2023-04-25T10:28:20;12.60;99.90
32536;DHT22;18974;50.838;4.636;2023-04-25T10:31:02;13.00;99.90
32536;DHT22;18974;50.838;4.636;2023-04-25T10:33:39;13.40;99.90
32536;DHT22;18974;50.838;4.636;2023-04-25T10:36:12;13.60;99.90
32536;DHT22;18974;50.838;4.636;2023-04-25T10:38:39;13.70;99.90
32536;DHT22;18974;50.838;4.636;2023-04-25T10:41:07;13.50;99.90
32536;DHT22;18974;50.838;4.636;2023-04-25T10:43:40;13.20;99.90
32536;DHT22;18974;50.838;4.636;2023-04-25T10:48:52;13.00;99.90
32536;DHT22;18974;50.838;4.636;2023-04-25T10:51:26;13.20;99.90
32536;DHT22;18974;50.838;4.636;2023-04-25T10:56:48;14.10;99.90
32536;DHT22;18974;50.838;4.636;2023-04-25T10:59:17;14.50;99.90
32536;DHT22;18974;50.838;4.636;2023-04-25T11:01:51;14.80;99.90
32536;DHT22;18974;50.838;4.636;2023-04-25T11:04:26;15.30;99.90
32536;DHT22;18974;50.838;4.636;2023-04-25T11:09:28;15.20;99.90
32536;DHT22;18974;50.838;4.636;2023-04-25T11:11:54;15.20;99.90
32536;DHT22;18974;50.838;4.636;2023-04-25T11:14:21;15.20;99.90
32536;DHT22;18974;50.838;4.636;2023-04-25T11:16:47;15.10;99.90
32536;DHT22;18974;50.838;4.636;2023-04-25T11:19:13;14.80;99.90
32536;DHT22;18974;50.838;4.636;2023-04-25T11:21:41;14.40;99.90
32536;DHT22;18974;50.838;4.636;2023-04-25T11:24:06;14.20;99.90
32536;DHT22;18974;50.838;4.636;2023-04-25T11:26:32;13.90;99.90
32536;DHT22;18974;50.838;4.636;2023-04-25T11:28:59;13.50;99.90
32536;DHT22;18974;50.838;4.636;2023-04-25T11:31:29;13.20;99.90
32536;DHT22;18974;50.838;4.636;2023-04-25T11:33:58;12.90;99.90
32536;DHT22;18974;50.838;4.636;2023-04-25T11:36:24;12.60;99.90
32536;DHT22;18974;50.838;4.636;2023-04-25T11:38:59;12.50;99.90
32536;DHT22;18974;50.838;4.636;2023-04-25T11:41:25;12.20;99.90
32536;DHT22;18974;50.838;4.636;2023-04-25T11:43:53;12.10;99.90
32536;DHT22;18974;50.838;4.636;2023-04-25T11:46:19;12.00;99.90
32536;DHT22;18974;50.838;4.636;2023-04-25T11:48:45;12.00;99.90
32536;DHT22;18974;50.838;4.636;2023-04-25T11:51:12;12.20;99.90
32536;DHT22;18974;50.838;4.636;2023-04-25T11:53:41;12.30;99.90
32536;DHT22;18974;50.838;4.636;2023-04-25T11:56:10;12.50;99.90
32536;DHT22;18974;50.838;4.636;2023-04-25T11:58:58;12.60;99.90
32536;DHT22;18974;50.838;4.636;2023-04-25T12:01:32;13.00;99.90
32536;DHT22;18974;50.838;4.636;2023-04-25T12:03:58;13.40;99.90
32536;DHT22;18974;50.838;4.636;2023-04-25T12:06:37;14.00;99.90
32536;DHT22;18974;50.838;4.636;2023-04-25T12:09:11;14.00;99.90
32536;DHT22;18974;50.838;4.636;2023-04-25T12:11:45;13.80;99.90
32536;DHT22;18974;50.838;4.636;2023-04-25T12:14:23;13.60;99.90
32536;DHT22;18974;50.838;4.636;2023-04-25T12:16:50;13.50;99.90
32536;DHT22;18974;50.838;4.636;2023-04-25T12:19:18;13.50;99.90
32536;DHT22;18974;50.838;4.636;2023-04-25T12:21:44;13.50;99.90
32536;DHT22;18974;50.838;4.636;2023-04-25T12:24:24;13.60;99.90
32536;DHT22;18974;50.838;4.636;2023-04-25T12:26:51;13.90;99.90
32536;DHT22;18974;50.838;4.636;2023-04-25T12:29:24;14.30;99.90
32536;DHT22;18974;50.838;4.636;2023-04-25T12:31:52;14.80;99.90
32536;DHT22;18974;50.838;4.636;2023-04-25T12:34:19;15.20;99.90
32536;DHT22;18974;50.838;4.636;2023-04-25T12:36:45;15.60;99.90
32536;DHT22;18974;50.838;4.636;2023-04-25T12:39:18;15.60;99.90
32536;DHT22;18974;50.838;4.636;2023-04-25T12:41:45;15.50;99.90
32536;DHT22;18974;50.838;4.636;2023-04-25T12:44:12;15.40;99.90
32536;DHT22;18974;50.838;4.636;2023-04-25T12:46:38;15.60;99.90
32536;DHT22;18974;50.838;4.636;2023-04-25T12:49:05;15.80;99.90
32536;DHT22;18974;50.838;4.636;2023-04-25T12:51:40;15.80;99.90
32536;DHT22;18974;50.838;4.636;2023-04-25T12:54:07;15.80;99.90
32536;DHT22;18974;50.838;4.636;2023-04-25T12:56:34;15.60;99.90
32536;DHT22;18974;50.838;4.636;2023-04-25T12:59:00;15.70;99.90
32536;DHT22;18974;50.838;4.636;2023-04-25T13:01:28;15.60;99.00
32536;DHT22;18974;50.838;4.636;2023-04-25T13:03:54;15.60;99.90
32536;DHT22;18974;50.838;4.636;2023-04-25T13:06:20;15.60;99.70
32536;DHT22;18974;50.838;4.636;2023-04-25T13:08:46;15.50;99.90
32536;DHT22;18974;50.838;4.636;2023-04-25T13:11:12;15.60;99.90
32536;DHT22;18974;50.838;4.636;2023-04-25T13:13:38;15.60;99.70
32536;DHT22;18974;50.838;4.636;2023-04-25T13:16:05;15.70;98.70
32536;DHT22;18974;50.838;4.636;2023-04-25T13:18:33;15.90;98.50
32536;DHT22;18974;50.838;4.636;2023-04-25T13:20:59;15.90;97.90
32536;DHT22;18974;50.838;4.636;2023-04-25T13:23:28;16.10;98.40
32536;DHT22;18974;50.838;4.636;2023-04-25T13:25:55;16.40;98.70
32536;DHT22;18974;50.838;4.636;2023-04-25T13:28:30;16.70;97.80
32536;DHT22;18974;50.838;4.636;2023-04-25T13:30:56;17.10;99.30
32536;DHT22;18974;50.838;4.636;2023-04-25T13:33:21;17.50;98.50
32536;DHT22;18974;50.838;4.636;2023-04-25T13:35:49;17.60;99.80
32536;DHT22;18974;50.838;4.636;2023-04-25T13:38:21;17.40;97.40
32536;DHT22;18974;50.838;4.636;2023-04-25T13:40:47;17.30;97.90
32536;DHT22;18974;50.838;4.636;2023-04-25T13:43:13;16.90;98.50
32536;DHT22;18974;50.838;4.636;2023-04-25T13:45:39;16.70;97.30
32536;DHT22;18974;50.838;4.636;2023-04-25T13:48:05;16.60;98.00
32536;DHT22;18974;50.838;4.636;2023-04-25T13:50:32;16.70;98.90
32536;DHT22;18974;50.838;4.636;2023-04-25T13:52:58;16.70;99.20
32536;DHT22;18974;50.838;4.636;2023-04-25T13:55:24;16.60;97.60
32536;DHT22;18974;50.838;4.636;2023-04-25T13:57:49;16.50;98.40
32536;DHT22;18974;50.838;4.636;2023-04-25T14:00:15;16.30;98.30
32536;DHT22;18974;50.838;4.636;2023-04-25T14:02:44;16.20;97.40
32536;DHT22;18974;50.838;4.636;2023-04-25T14:05:10;16.30;97.70
32536;DHT22;18974;50.838;4.636;2023-04-25T14:07:36;16.40;96.50
32536;DHT22;18974;50.838;4.636;2023-04-25T14:10:03;16.50;97.80
32536;DHT22;18974;50.838;4.636;2023-04-25T14:12:30;16.80;98.10
32536;DHT22;18974;50.838;4.636;2023-04-25T14:14:56;17.20;96.30
32536;DHT22;18974;50.838;4.636;2023-04-25T14:17:21;17.40;96.30
32536;DHT22;18974;50.838;4.636;2023-04-25T14:19:47;17.30;97.00
32536;DHT22;18974;50.838;4.636;2023-04-25T14:22:14;17.10;97.10
32536;DHT22;18974;50.838;4.636;2023-04-25T14:24:43;16.70;95.00
32536;DHT22;18974;50.838;4.636;2023-04-25T14:27:08;16.20;94.30
32536;DHT22;18974;50.838;4.636;2023-04-25T14:29:35;15.80;95.70
32536;DHT22;18974;50.838;4.636;2023-04-25T14:32:00;15.80;98.90
32536;DHT22;18974;50.838;4.636;2023-04-25T14:34:27;15.70;98.40
32536;DHT22;18974;50.838;4.636;2023-04-25T14:36:53;15.60;97.20
32536;DHT22;18974;50.838;4.636;2023-04-25T14:39:19;15.40;97.90
32536;DHT22;18974;50.838;4.636;2023-04-25T14:41:44;15.40;97.60
32536;DHT22;18974;50.838;4.636;2023-04-25T14:44:10;15.40;97.50
32536;DHT22;18974;50.838;4.636;2023-04-25T14:46:36;15.30;96.60
32536;DHT22;18974;50.838;4.636;2023-04-25T14:49:03;15.40;96.20
32536;DHT22;18974;50.838;4.636;2023-04-25T14:51:28;15.30;98.30
32536;DHT22;18974;50.838;4.636;2023-04-25T14:53:54;15.30;95.40
32536;DHT22;18974;50.838;4.636;2023-04-25T14:56:20;15.20;96.40
32536;DHT22;18974;50.838;4.636;2023-04-25T14:58:46;15.10;96.80
32536;DHT22;18974;50.838;4.636;2023-04-25T15:01:12;15.30;98.30
32536;DHT22;18974;50.838;4.636;2023-04-25T15:03:39;15.30;96.00
32536;DHT22;18974;50.838;4.636;2023-04-25T15:06:05;15.30;95.40
32536;DHT22;18974;50.838;4.636;2023-04-25T15:08:31;15.30;96.10
32536;DHT22;18974;50.838;4.636;2023-04-25T15:10:58;15.30;95.40
32536;DHT22;18974;50.838;4.636;2023-04-25T15:13:24;15.20;96.30
32536;DHT22;18974;50.838;4.636;2023-04-25T15:15:50;14.90;95.30
32536;DHT22;18974;50.838;4.636;2023-04-25T15:18:17;14.90;98.00
32536;DHT22;18974;50.838;4.636;2023-04-25T15:20:44;15.10;97.20
32536;DHT22;18974;50.838;4.636;2023-04-25T15:23:09;15.30;97.60
32536;DHT22;18974;50.838;4.636;2023-04-25T15:25:35;15.30;94.30
32536;DHT22;18974;50.838;4.636;2023-04-25T15:28:01;15.60;96.90
32536;DHT22;18974;50.838;4.636;2023-04-25T15:30:30;15.80;95.60
32536;DHT22;18974;50.838;4.636;2023-04-25T15:32:55;15.70;96.70
32536;DHT22;18974;50.838;4.636;2023-04-25T15:35:21;15.80;96.50
32536;DHT22;18974;50.838;4.636;2023-04-25T15:37:47;15.70;96.30
32536;DHT22;18974;50.838;4.636;2023-04-25T15:40:16;15.50;97.80
32536;DHT22;18974;50.838;4.636;2023-04-25T15:42:46;15.50;96.10
32536;DHT22;18974;50.838;4.636;2023-04-25T15:45:13;15.50;95.20
32536;DHT22;18974;50.838;4.636;2023-04-25T15:47:40;15.30;95.60
32536;DHT22;18974;50.838;4.636;2023-04-25T15:50:10;15.30;95.50